sensor_id;sensor_type;location;lat;lon;timestamp;pressure;altitude;pressure_sealevel;temperature;humidity
35676;BME280;21790;42.668;23.298;2023-02-28T00:01:21;95143.00;;;14.01;52.18
35676;BME280;21790;42.668;23.298;2023-02-28T00:03:47;95141.25;;;14.12;51.80
35676;BME280;21790;42.668;23.298;2023-02-28T00:06:13;95147.63;;;14.28;51.22
35676;BME280;21790;42.668;23.298;2023-02-28T00:08:39;95138.56;;;14.42;50.85
35676;BME280;21790;42.668;23.298;2023-02-28T00:11:07;95139.44;;;14.48;50.72
35676;BME280;21790;42.668;23.298;2023-02-28T00:13:34;95128.88;;;14.37;50.99
35676;BME280;21790;42.668;23.298;2023-02-28T00:16:08;95130.53;;;14.58;50.35
35676;BME280;21790;42.668;23.298;2023-02-28T00:18:34;95131.19;;;14.39;50.77
35676;BME280;21790;42.668;23.298;2023-02-28T00:21:00;95143.97;;;14.36;51.30
35676;BME280;21790;42.668;23.298;2023-02-28T00:23:26;95151.69;;;14.41;51.21
35676;BME280;21790;42.668;23.298;2023-02-28T00:25:52;95149.34;;;14.63;50.10
35676;BME280;21790;42.668;23.298;2023-02-28T00:28:17;95162.81;;;14.80;49.75
35676;BME280;21790;42.668;23.298;2023-02-28T00:30:43;95162.31;;;14.67;50.44
35676;BME280;21790;42.668;23.298;2023-02-28T00:33:09;95160.66;;;14.36;51.21
35676;BME280;21790;42.668;23.298;2023-02-28T00:35:35;95150.09;;;14.49;50.88
35676;BME280;21790;42.668;23.298;2023-02-28T00:38:06;95158.94;;;14.62;50.82
35676;BME280;21790;42.668;23.298;2023-02-28T00:40:32;95155.09;;;14.45;51.22
35676;BME280;21790;42.668;23.298;2023-02-28T00:42:57;95161.06;;;14.68;49.94
35676;BME280;21790;42.668;23.298;2023-02-28T00:45:23;95153.69;;;14.79;49.85
35676;BME280;21790;42.668;23.298;2023-02-28T00:47:50;95153.09;;;14.60;50.52
35676;BME280;21790;42.668;23.298;2023-02-28T00:50:18;95156.69;;;14.52;51.47
35676;BME280;21790;42.668;23.298;2023-02-28T00:52:47;95147.69;;;14.57;51.44
35676;BME280;21790;42.668;23.298;2023-02-28T00:55:12;95143.28;;;14.50;51.22
35676;BME280;21790;42.668;23.298;2023-02-28T00:57:39;95148.78;;;14.59;50.74
35676;BME280;21790;42.668;23.298;2023-02-28T01:00:07;95155.34;;;14.47;51.42
35676;BME280;21790;42.668;23.298;2023-02-28T01:02:35;95145.91;;;14.69;50.70
35676;BME280;21790;42.668;23.298;2023-02-28T01:05:00;95155.09;;;14.45;51.24
35676;BME280;21790;42.668;23.298;2023-02-28T01:07:26;95138.19;;;14.49;50.83
35676;BME280;21790;42.668;23.298;2023-02-28T01:09:52;95144.53;;;14.49;50.51
35676;BME280;21790;42.668;23.298;2023-02-28T01:12:17;95144.47;;;14.73;49.80
35676;BME280;21790;42.668;23.298;2023-02-28T01:14:43;95156.09;;;14.72;49.85
35676;BME280;21790;42.668;23.298;2023-02-28T01:17:09;95149.66;;;14.65;49.88
35676;BME280;21790;42.668;23.298;2023-02-28T01:19:35;95146.75;;;14.60;50.03
35676;BME280;21790;42.668;23.298;2023-02-28T01:22:05;95146.19;;;14.32;51.22
35676;BME280;21790;42.668;23.298;2023-02-28T01:24:31;95144.63;;;14.31;51.02
35676;BME280;21790;42.668;23.298;2023-02-28T01:26:57;95141.66;;;14.35;51.02
35676;BME280;21790;42.668;23.298;2023-02-28T01:29:22;95141.94;;;14.22;53.61
35676;BME280;21790;42.668;23.298;2023-02-28T01:31:48;95141.88;;;14.70;50.97
35676;BME280;21790;42.668;23.298;2023-02-28T01:34:14;95144.53;;;14.49;51.27
35676;BME280;21790;42.668;23.298;2023-02-28T01:36:40;95133.19;;;14.38;51.22
35676;BME280;21790;42.668;23.298;2023-02-28T01:39:05;95131.56;;;14.46;51.09
35676;BME280;21790;42.668;23.298;2023-02-28T01:41:32;95136.84;;;14.44;50.73
35676;BME280;21790;42.668;23.298;2023-02-28T01:44:04;95150.09;;;14.49;51.14
35676;BME280;21790;42.668;23.298;2023-02-28T01:46:34;95144.22;;;14.47;51.12
35676;BME280;21790;42.668;23.298;2023-02-28T01:49:19;95154.41;;;14.27;51.76
35676;BME280;21790;42.668;23.298;2023-02-28T01:51:54;95161.13;;;14.35;51.49
35676;BME280;21790;42.668;23.298;2023-02-28T01:54:30;95141.34;;;14.42;51.14
35676;BME280;21790;42.668;23.298;2023-02-28T01:57:00;95151.50;;;14.21;51.52
35676;BME280;21790;42.668;23.298;2023-02-28T02:01:59;95152.03;;;14.34;50.88
35676;BME280;21790;42.668;23.298;2023-02-28T02:04:27;95155.25;;;13.94;51.63
35676;BME280;21790;42.668;23.298;2023-02-28T02:06:57;95154.78;;;13.96;51.66
35676;BME280;21790;42.668;23.298;2023-02-28T02:09:23;95147.91;;;14.06;51.16
35676;BME280;21790;42.668;23.298;2023-02-28T02:11:49;95139.50;;;14.15;50.69
35676;BME280;21790;42.668;23.298;2023-02-28T02:14:51;95153.34;;;14.24;50.75
35676;BME280;21790;42.668;23.298;2023-02-28T02:17:30;95145.13;;;14.06;50.87
35676;BME280;21790;42.668;23.298;2023-02-28T02:25:29;95139.38;;;13.86;51.59
35676;BME280;21790;42.668;23.298;2023-02-28T02:36:33;95151.63;;;13.79;51.69
35676;BME280;21790;42.668;23.298;2023-02-28T02:39:17;95149.69;;;13.94;51.84
35676;BME280;21790;42.668;23.298;2023-02-28T02:41:52;95142.47;;;13.88;52.04
35676;BME280;21790;42.668;23.298;2023-02-28T02:44:24;95147.81;;;14.00;51.56
35676;BME280;21790;42.668;23.298;2023-02-28T02:46:55;95152.78;;;13.96;51.72
35676;BME280;21790;42.668;23.298;2023-02-28T02:49:28;95154.34;;;13.88;51.92
35676;BME280;21790;42.668;23.298;2023-02-28T02:51:58;95150.59;;;14.00;51.61
35676;BME280;21790;42.668;23.298;2023-02-28T02:54:38;95154.41;;;14.03;51.68
35676;BME280;21790;42.668;23.298;2023-02-28T02:59:57;95160.63;;;13.74;52.14
35676;BME280;21790;42.668;23.298;2023-02-28T03:02:25;95164.28;;;13.80;52.03
35676;BME280;21790;42.668;23.298;2023-02-28T03:04:58;95171.22;;;13.85;52.18
35676;BME280;21790;42.668;23.298;2023-02-28T03:07:26;95170.25;;;13.88;52.07
35676;BME280;21790;42.668;23.298;2023-02-28T03:09:53;95172.63;;;13.80;51.77
35676;BME280;21790;42.668;23.298;2023-02-28T03:12:20;95180.69;;;13.69;52.17
35676;BME280;21790;42.668;23.298;2023-02-28T03:15:04;95186.56;;;13.95;51.87
35676;BME280;21790;42.668;23.298;2023-02-28T03:18:10;95186.44;;;14.13;51.07
35676;BME280;21790;42.668;23.298;2023-02-28T03:20:50;95192.91;;;13.95;51.28
35676;BME280;21790;42.668;23.298;2023-02-28T03:23:23;95193.72;;;13.87;51.51
35676;BME280;21790;42.668;23.298;2023-02-28T03:26:03;95191.38;;;13.94;51.24
35676;BME280;21790;42.668;23.298;2023-02-28T03:28:47;95195.97;;;13.97;51.23
35676;BME280;21790;42.668;23.298;2023-02-28T03:31:26;95198.63;;;13.92;51.15
35676;BME280;21790;42.668;23.298;2023-02-28T03:34:01;95205.50;;;13.72;52.03
35676;BME280;21790;42.668;23.298;2023-02-28T03:36:35;95200.72;;;13.73;51.78
35676;BME280;21790;42.668;23.298;2023-02-28T03:39:16;95204.75;;;13.72;51.68
35676;BME280;21790;42.668;23.298;2023-02-28T03:41:49;95210.25;;;13.81;51.90
35676;BME280;21790;42.668;23.298;2023-02-28T03:44:24;95202.59;;;13.67;52.11
35676;BME280;21790;42.668;23.298;2023-02-28T03:47:13;95210.88;;;14.09;51.12
35676;BME280;21790;42.668;23.298;2023-02-28T03:50:03;95213.56;;;14.27;50.66
35676;BME280;21790;42.668;23.298;2023-02-28T03:52:34;95211.25;;;14.25;50.53
35676;BME280;21790;42.668;23.298;2023-02-28T03:55:04;95213.13;;;13.96;51.52
35676;BME280;21790;42.668;23.298;2023-02-28T04:00:35;95211.13;;;14.20;50.74
35676;BME280;21790;42.668;23.298;2023-02-28T04:03:03;95216.06;;;13.92;51.43
35676;BME280;21790;42.668;23.298;2023-02-28T04:05:29;95227.34;;;13.89;51.78
35676;BME280;21790;42.668;23.298;2023-02-28T04:08:07;95214.84;;;14.17;51.07
35676;BME280;21790;42.668;23.298;2023-02-28T04:10:35;95216.75;;;14.11;51.18
35676;BME280;21790;42.668;23.298;2023-02-28T04:13:01;95205.44;;;14.14;50.44
35676;BME280;21790;42.668;23.298;2023-02-28T04:15:27;95209.53;;;14.28;50.36
35676;BME280;21790;42.668;23.298;2023-02-28T04:17:53;95209.66;;;14.10;50.75
35676;BME280;21790;42.668;23.298;2023-02-28T04:20:18;95209.91;;;13.88;51.30
35676;BME280;21790;42.668;23.298;2023-02-28T04:22:45;95209.72;;;13.92;51.38
35676;BME280;21790;42.668;23.298;2023-02-28T04:25:11;95206.03;;;13.95;51.28
35676;BME280;21790;42.668;23.298;2023-02-28T04:27:36;95212.47;;;14.01;51.02
35676;BME280;21790;42.668;23.298;2023-02-28T04:30:05;95210.34;;;13.96;50.65
35676;BME280;21790;42.668;23.298;2023-02-28T04:32:31;95214.78;;;14.02;50.70
35676;BME280;21790;42.668;23.298;2023-02-28T04:34:57;95212.25;;;14.13;50.31
35676;BME280;21790;42.668;23.298;2023-02-28T04:37:23;95207.69;;;14.01;50.52
35676;BME280;21790;42.668;23.298;2023-02-28T04:39:53;95220.97;;;13.97;51.01
35676;BME280;21790;42.668;23.298;2023-02-28T04:42:19;95222.66;;;14.04;50.39
35676;BME280;21790;42.668;23.298;2023-02-28T04:44:45;95229.31;;;13.97;50.53
35676;BME280;21790;42.668;23.298;2023-02-28T04:47:11;95231.94;;;13.59;51.53
35676;BME280;21790;42.668;23.298;2023-02-28T04:49:37;95238.13;;;13.63;51.63
35676;BME280;21790;42.668;23.298;2023-02-28T04:52:18;95233.16;;;14.00;51.00
35676;BME280;21790;42.668;23.298;2023-02-28T04:54:45;95243.13;;;13.82;51.01
35676;BME280;21790;42.668;23.298;2023-02-28T04:57:10;95246.03;;;13.88;50.54
35676;BME280;21790;42.668;23.298;2023-02-28T04:59:36;95245.59;;;13.80;50.76
35676;BME280;21790;42.668;23.298;2023-02-28T05:02:01;95248.75;;;13.64;51.44
35676;BME280;21790;42.668;23.298;2023-02-28T05:04:34;95252.22;;;13.83;50.89
35676;BME280;21790;42.668;23.298;2023-02-28T05:07:02;95243.69;;;13.96;50.47
35676;BME280;21790;42.668;23.298;2023-02-28T05:09:28;95249.91;;;13.81;50.76
35676;BME280;21790;42.668;23.298;2023-02-28T05:11:54;95252.06;;;13.87;50.82
35676;BME280;21790;42.668;23.298;2023-02-28T05:14:20;95250.59;;;13.67;51.26
35676;BME280;21790;42.668;23.298;2023-02-28T05:16:46;95245.25;;;13.36;51.81
35676;BME280;21790;42.668;23.298;2023-02-28T05:19:11;95246.53;;;13.26;52.36
35676;BME280;21790;42.668;23.298;2023-02-28T05:21:48;95246.47;;;13.54;52.27
35676;BME280;21790;42.668;23.298;2023-02-28T05:24:15;95259.03;;;13.04;52.95
35676;BME280;21790;42.668;23.298;2023-02-28T05:26:46;95254.38;;;13.37;52.00
35676;BME280;21790;42.668;23.298;2023-02-28T05:29:12;95267.91;;;13.53;51.48
35676;BME280;21790;42.668;23.298;2023-02-28T05:31:40;95266.69;;;13.45;52.05
35676;BME280;21790;42.668;23.298;2023-02-28T05:34:06;95267.47;;;13.46;52.12
35676;BME280;21790;42.668;23.298;2023-02-28T05:36:32;95271.00;;;13.55;51.30
35676;BME280;21790;42.668;23.298;2023-02-28T05:39:07;95266.94;;;13.65;51.43
35676;BME280;21790;42.668;23.298;2023-02-28T05:41:39;95265.94;;;13.45;51.69
35676;BME280;21790;42.668;23.298;2023-02-28T05:44:13;95278.88;;;13.48;51.61
35676;BME280;21790;42.668;23.298;2023-02-28T05:46:40;95275.63;;;13.49;51.37
35676;BME280;21790;42.668;23.298;2023-02-28T05:49:05;95261.19;;;13.18;52.08
35676;BME280;21790;42.668;23.298;2023-02-28T05:51:31;95283.56;;;13.23;52.27
35676;BME280;21790;42.668;23.298;2023-02-28T05:54:01;95286.78;;;13.31;52.37
35676;BME280;21790;42.668;23.298;2023-02-28T05:56:30;95281.53;;;13.33;51.99
35676;BME280;21790;42.668;23.298;2023-02-28T05:58:55;95280.28;;;14.60;60.66
35676;BME280;21790;42.668;23.298;2023-02-28T06:01:37;95277.94;;;14.82;52.12
35676;BME280;21790;42.668;23.298;2023-02-28T06:07:31;95275.63;;;14.33;49.91
35676;BME280;21790;42.668;23.298;2023-02-28T06:13:33;95286.28;;;14.02;50.85
35676;BME280;21790;42.668;23.298;2023-02-28T06:22:43;95282.19;;;13.79;51.22
35676;BME280;21790;42.668;23.298;2023-02-28T06:25:45;95280.91;;;13.89;51.45
35676;BME280;21790;42.668;23.298;2023-02-28T06:31:42;95286.16;;;13.87;51.54
35676;BME280;21790;42.668;23.298;2023-02-28T06:37:31;95298.66;;;14.24;59.12
35676;BME280;21790;42.668;23.298;2023-02-28T06:39:59;95294.47;;;14.38;50.28
35676;BME280;21790;42.668;23.298;2023-02-28T06:42:26;95298.81;;;13.88;51.21
35676;BME280;21790;42.668;23.298;2023-02-28T06:44:57;95304.06;;;13.95;51.14
35676;BME280;21790;42.668;23.298;2023-02-28T06:47:41;95304.31;;;14.06;51.00
35676;BME280;21790;42.668;23.298;2023-02-28T06:50:14;95300.53;;;14.18;50.79
35676;BME280;21790;42.668;23.298;2023-02-28T06:52:59;95304.19;;;14.34;50.52
35676;BME280;21790;42.668;23.298;2023-02-28T06:55:26;95314.41;;;14.28;50.55
35676;BME280;21790;42.668;23.298;2023-02-28T06:57:54;95305.88;;;14.40;50.18
35676;BME280;21790;42.668;23.298;2023-02-28T07:23:07;95303.16;;;14.22;50.88
35676;BME280;21790;42.668;23.298;2023-02-28T07:35:14;95308.38;;;13.96;51.74
35676;BME280;21790;42.668;23.298;2023-02-28T07:37:41;95315.81;;;13.81;51.97
35676;BME280;21790;42.668;23.298;2023-02-28T07:40:11;95307.75;;;13.92;52.24
35676;BME280;21790;42.668;23.298;2023-02-28T07:42:41;95314.66;;;14.06;51.76
35676;BME280;21790;42.668;23.298;2023-02-28T07:45:08;95321.28;;;14.08;51.58
35676;BME280;21790;42.668;23.298;2023-02-28T07:47:37;95320.22;;;14.06;51.62
35676;BME280;21790;42.668;23.298;2023-02-28T07:50:03;95310.78;;;14.12;51.44
35676;BME280;21790;42.668;23.298;2023-02-28T07:52:28;95304.31;;;14.06;51.46
35676;BME280;21790;42.668;23.298;2023-02-28T07:54:54;95296.44;;;14.05;51.88
35676;BME280;21790;42.668;23.298;2023-02-28T07:57:19;95305.09;;;14.07;51.94
35676;BME280;21790;42.668;23.298;2023-02-28T07:59:45;95300.13;;;14.11;51.56
35676;BME280;21790;42.668;23.298;2023-02-28T08:02:14;95304.09;;;14.19;51.94
35676;BME280;21790;42.668;23.298;2023-02-28T08:04:40;95298.13;;;14.02;51.97
35676;BME280;21790;42.668;23.298;2023-02-28T08:07:05;95295.03;;;14.09;51.95
35676;BME280;21790;42.668;23.298;2023-02-28T08:09:31;95303.50;;;14.15;52.14
35676;BME280;21790;42.668;23.298;2023-02-28T08:11:57;95300.97;;;14.26;51.92
35676;BME280;21790;42.668;23.298;2023-02-28T08:14:22;95309.78;;;14.24;51.85
35676;BME280;21790;42.668;23.298;2023-02-28T08:16:48;95307.19;;;14.21;52.18
35676;BME280;21790;42.668;23.298;2023-02-28T08:19:13;95302.84;;;14.29;51.86
35676;BME280;21790;42.668;23.298;2023-02-28T08:21:39;95295.75;;;14.52;51.18
35676;BME280;21790;42.668;23.298;2023-02-28T08:24:05;95309.59;;;14.37;52.18
35676;BME280;21790;42.668;23.298;2023-02-28T08:26:31;95306.09;;;14.51;52.07
35676;BME280;21790;42.668;23.298;2023-02-28T08:28:56;95308.25;;;14.56;51.94
35676;BME280;21790;42.668;23.298;2023-02-28T08:31:22;95306.72;;;14.55;51.93
35676;BME280;21790;42.668;23.298;2023-02-28T08:33:48;95310.41;;;14.61;51.93
35676;BME280;21790;42.668;23.298;2023-02-28T08:36:16;95312.09;;;14.59;51.76
35676;BME280;21790;42.668;23.298;2023-02-28T08:38:44;95314.72;;;15.25;60.09
35676;BME280;21790;42.668;23.298;2023-02-28T08:41:12;95315.75;;;15.13;51.55
35676;BME280;21790;42.668;23.298;2023-02-28T08:43:40;95314.75;;;15.01;50.88
35676;BME280;21790;42.668;23.298;2023-02-28T08:46:34;95312.06;;;15.06;51.04
35676;BME280;21790;42.668;23.298;2023-02-28T08:49:00;95317.69;;;14.83;51.63
35676;BME280;21790;42.668;23.298;2023-02-28T08:51:27;95313.69;;;14.75;51.42
35676;BME280;21790;42.668;23.298;2023-02-28T08:54:05;95313.16;;;14.85;51.21
35676;BME280;21790;42.668;23.298;2023-02-28T08:56:31;95314.34;;;14.70;51.49
35676;BME280;21790;42.668;23.298;2023-02-28T08:58:58;95326.59;;;14.63;52.02
35676;BME280;21790;42.668;23.298;2023-02-28T09:01:26;95321.53;;;14.61;51.80
35676;BME280;21790;42.668;23.298;2023-02-28T09:03:52;95324.19;;;14.56;52.19
35676;BME280;21790;42.668;23.298;2023-02-28T09:06:24;95319.91;;;14.70;52.08
35676;BME280;21790;42.668;23.298;2023-02-28T09:08:51;95317.97;;;14.85;51.23
35676;BME280;21790;42.668;23.298;2023-02-28T09:11:20;95309.69;;;14.76;52.00
35676;BME280;21790;42.668;23.298;2023-02-28T09:13:47;95306.78;;;14.70;52.13
35676;BME280;21790;42.668;23.298;2023-02-28T09:19:35;95311.56;;;14.70;52.13
35676;BME280;21790;42.668;23.298;2023-02-28T09:22:09;95309.34;;;14.83;52.06
35676;BME280;21790;42.668;23.298;2023-02-28T09:24:36;95308.91;;;14.75;51.92
35676;BME280;21790;42.668;23.298;2023-02-28T09:30:49;95309.41;;;15.12;51.43
35676;BME280;21790;42.668;23.298;2023-02-28T09:33:16;95304.94;;;14.91;51.80
35676;BME280;21790;42.668;23.298;2023-02-28T09:35:44;95302.09;;;15.00;51.77
35676;BME280;21790;42.668;23.298;2023-02-28T09:41:40;95303.59;;;15.25;51.14
35676;BME280;21790;42.668;23.298;2023-02-28T09:47:27;95296.63;;;16.03;65.91
35676;BME280;21790;42.668;23.298;2023-02-28T09:50:06;95296.09;;;16.68;55.75
35676;BME280;21790;42.668;23.298;2023-02-28T09:52:43;95287.47;;;17.07;51.47
35676;BME280;21790;42.668;23.298;2023-02-28T09:55:45;95292.41;;;16.97;47.84
35676;BME280;21790;42.668;23.298;2023-02-28T09:58:22;95284.19;;;16.68;48.38
35676;BME280;21790;42.668;23.298;2023-02-28T10:01:31;95288.44;;;16.63;48.45
35676;BME280;21790;42.668;23.298;2023-02-28T10:06:48;95282.69;;;16.38;49.27
35676;BME280;21790;42.668;23.298;2023-02-28T10:09:32;95276.09;;;16.20;49.31
35676;BME280;21790;42.668;23.298;2023-02-28T10:12:04;95278.88;;;16.20;49.63
35676;BME280;21790;42.668;23.298;2023-02-28T10:14:33;95272.00;;;16.01;49.93
35676;BME280;21790;42.668;23.298;2023-02-28T10:17:14;95267.56;;;16.09;49.78
35676;BME280;21790;42.668;23.298;2023-02-28T10:25:21;95272.13;;;15.63;51.33
35676;BME280;21790;42.668;23.298;2023-02-28T10:28:11;95267.22;;;15.72;50.97
35676;BME280;21790;42.668;23.298;2023-02-28T10:30:51;95257.78;;;15.26;51.63
35676;BME280;21790;42.668;23.298;2023-02-28T10:33:34;95256.59;;;15.03;52.90
35676;BME280;21790;42.668;23.298;2023-02-28T10:36:23;95261.63;;;15.28;51.75
35676;BME280;21790;42.668;23.298;2023-02-28T10:38:53;95245.69;;;15.29;51.52
35676;BME280;21790;42.668;23.298;2023-02-28T10:41:30;95244.38;;;15.54;51.03
35676;BME280;21790;42.668;23.298;2023-02-28T10:44:19;95229.97;;;15.70;50.56
35676;BME280;21790;42.668;23.298;2023-02-28T10:46:48;95238.00;;;15.97;50.24
35676;BME280;21790;42.668;23.298;2023-02-28T10:49:26;95221.84;;;16.01;49.73
35676;BME280;21790;42.668;23.298;2023-02-28T10:55:25;95211.75;;;16.59;51.55
35676;BME280;21790;42.668;23.298;2023-02-28T10:57:52;95211.00;;;16.23;50.33
35676;BME280;21790;42.668;23.298;2023-02-28T11:00:33;95203.06;;;16.37;49.45
35676;BME280;21790;42.668;23.298;2023-02-28T11:03:00;95202.31;;;16.36;48.98
35676;BME280;21790;42.668;23.298;2023-02-28T11:05:33;95197.84;;;16.64;49.51
35676;BME280;21790;42.668;23.298;2023-02-28T11:08:12;95204.53;;;16.52;51.64
35676;BME280;21790;42.668;23.298;2023-02-28T11:10:39;95192.88;;;16.33;51.00
35676;BME280;21790;42.668;23.298;2023-02-28T11:13:05;95184.19;;;16.66;49.84
35676;BME280;21790;42.668;23.298;2023-02-28T11:15:32;95187.19;;;17.09;49.41
35676;BME280;21790;42.668;23.298;2023-02-28T11:18:29;95191.88;;;16.37;48.54
35676;BME280;21790;42.668;23.298;2023-02-28T11:24:31;95183.22;;;17.47;48.62
35676;BME280;21790;42.668;23.298;2023-02-28T11:29:46;95174.28;;;17.11;47.36
35676;BME280;21790;42.668;23.298;2023-02-28T11:32:21;95181.19;;;17.16;46.92
35676;BME280;21790;42.668;23.298;2023-02-28T11:37:41;95185.09;;;16.58;47.55
35676;BME280;21790;42.668;23.298;2023-02-28T11:41:03;95173.63;;;16.76;47.49
35676;BME280;21790;42.668;23.298;2023-02-28T11:43:24;95174.81;;;16.90;47.25
35676;BME280;21790;42.668;23.298;2023-02-28T11:51:50;95176.69;;;15.97;49.38
35676;BME280;21790;42.668;23.298;2023-02-28T11:54:26;95171.03;;;16.32;48.50
35676;BME280;21790;42.668;23.298;2023-02-28T11:57:08;95151.66;;;16.84;47.57
35676;BME280;21790;42.668;23.298;2023-02-28T12:05:34;95161.97;;;17.24;47.02
35676;BME280;21790;42.668;23.298;2023-02-28T12:10:47;95164.31;;;16.59;47.67
35676;BME280;21790;42.668;23.298;2023-02-28T12:13:58;95162.75;;;16.78;47.52
35676;BME280;21790;42.668;23.298;2023-02-28T12:16:57;95148.25;;;16.74;47.12
35676;BME280;21790;42.668;23.298;2023-02-28T12:21:58;95160.72;;;16.38;48.17
35676;BME280;21790;42.668;23.298;2023-02-28T12:24:47;95162.75;;;16.58;47.76
35676;BME280;21790;42.668;23.298;2023-02-28T12:27:18;95157.59;;;16.51;47.67
35676;BME280;21790;42.668;23.298;2023-02-28T12:30:02;95151.91;;;16.60;47.25
35676;BME280;21790;42.668;23.298;2023-02-28T12:32:35;95153.03;;;16.53;47.66
35676;BME280;21790;42.668;23.298;2023-02-28T12:37:46;95147.97;;;16.72;46.71
35676;BME280;21790;42.668;23.298;2023-02-28T12:40:20;95151.31;;;16.56;47.17
35676;BME280;21790;42.668;23.298;2023-02-28T12:42:50;95155.03;;;16.67;47.17
35676;BME280;21790;42.668;23.298;2023-02-28T12:45:23;95150.88;;;16.83;47.02
35676;BME280;21790;42.668;23.298;2023-02-28T12:50:28;95148.16;;;16.48;47.36
35676;BME280;21790;42.668;23.298;2023-02-28T12:53:03;95143.94;;;16.53;47.32
35676;BME280;21790;42.668;23.298;2023-02-28T12:55:45;95152.13;;;16.82;46.98
35676;BME280;21790;42.668;23.298;2023-02-28T12:58:21;95143.00;;;16.82;46.71
35676;BME280;21790;42.668;23.298;2023-02-28T13:07:05;95148.97;;;15.94;48.58
35676;BME280;21790;42.668;23.298;2023-02-28T13:13:02;95143.16;;;16.52;47.61
35676;BME280;21790;42.668;23.298;2023-02-28T13:15:29;95140.25;;;16.61;46.87
35676;BME280;21790;42.668;23.298;2023-02-28T13:18:01;95155.63;;;16.37;47.28
35676;BME280;21790;42.668;23.298;2023-02-28T13:20:31;95142.91;;;16.30;47.45
35676;BME280;21790;42.668;23.298;2023-02-28T13:23:16;95147.63;;;16.44;47.18
35676;BME280;21790;42.668;23.298;2023-02-28T13:25:53;95137.84;;;15.94;48.16
35676;BME280;21790;42.668;23.298;2023-02-28T13:31:18;95144.78;;;16.18;46.87
35676;BME280;21790;42.668;23.298;2023-02-28T13:38:46;95132.78;;;16.12;47.52
35676;BME280;21790;42.668;23.298;2023-02-28T13:41:45;95145.00;;;16.35;47.11
35676;BME280;21790;42.668;23.298;2023-02-28T13:44:21;95135.16;;;16.19;47.08
35676;BME280;21790;42.668;23.298;2023-02-28T13:54:54;95111.72;;;15.91;47.07
35676;BME280;21790;42.668;23.298;2023-02-28T14:05:33;95121.63;;;16.12;46.70
35676;BME280;21790;42.668;23.298;2023-02-28T14:08:16;95117.69;;;15.84;47.49
35676;BME280;21790;42.668;23.298;2023-02-28T14:10:49;95109.78;;;15.97;47.08
35676;BME280;21790;42.668;23.298;2023-02-28T14:13:40;95123.25;;;15.84;47.25
35676;BME280;21790;42.668;23.298;2023-02-28T14:16:20;95133.25;;;15.90;47.23
35676;BME280;21790;42.668;23.298;2023-02-28T14:19:01;95131.53;;;15.78;47.54
35676;BME280;21790;42.668;23.298;2023-02-28T14:21:34;95116.34;;;15.59;48.46
35676;BME280;21790;42.668;23.298;2023-02-28T14:32:41;95121.69;;;16.38;50.17
35676;BME280;21790;42.668;23.298;2023-02-28T14:50:17;95124.25;;;16.21;47.70
35676;BME280;21790;42.668;23.298;2023-02-28T14:55:20;95124.13;;;15.90;48.26
35676;BME280;21790;42.668;23.298;2023-02-28T15:01:10;95119.13;;;16.35;54.23
35676;BME280;21790;42.668;23.298;2023-02-28T15:04:12;95121.25;;;16.45;46.59
35676;BME280;21790;42.668;23.298;2023-02-28T15:10:27;95118.41;;;16.60;46.72
35676;BME280;21790;42.668;23.298;2023-02-28T15:34:06;95137.56;;;15.57;48.99
35676;BME280;21790;42.668;23.298;2023-02-28T15:39:55;95140.00;;;16.04;51.97
35676;BME280;21790;42.668;23.298;2023-02-28T15:42:39;95131.78;;;16.15;48.61
35676;BME280;21790;42.668;23.298;2023-02-28T15:48:58;95126.16;;;16.30;47.39
35676;BME280;21790;42.668;23.298;2023-02-28T15:51:38;95133.03;;;15.94;48.20
35676;BME280;21790;42.668;23.298;2023-02-28T15:57:29;95137.69;;;15.82;48.41
35676;BME280;21790;42.668;23.298;2023-02-28T16:09:57;95144.84;;;15.39;49.24
35676;BME280;21790;42.668;23.298;2023-02-28T16:22:33;95184.81;;;15.36;49.79
35676;BME280;21790;42.668;23.298;2023-02-28T16:31:43;95193.16;;;14.92;50.69
35676;BME280;21790;42.668;23.298;2023-02-28T16:37:45;95199.28;;;14.82;50.95
35676;BME280;21790;42.668;23.298;2023-02-28T16:43:39;95209.81;;;14.39;51.59
35676;BME280;21790;42.668;23.298;2023-02-28T16:56:32;95216.09;;;14.63;50.88
35676;BME280;21790;42.668;23.298;2023-02-28T17:02:39;95215.97;;;14.10;51.68
35676;BME280;21790;42.668;23.298;2023-02-28T17:15:16;95219.47;;;14.20;51.27
35676;BME280;21790;42.668;23.298;2023-02-28T17:18:08;95229.75;;;14.38;50.89
35676;BME280;21790;42.668;23.298;2023-02-28T17:27:44;95223.22;;;13.84;51.72
35676;BME280;21790;42.668;23.298;2023-02-28T17:30:43;95221.09;;;14.03;51.17
35676;BME280;21790;42.668;23.298;2023-02-28T18:00:14;95215.25;;;13.08;53.53
35676;BME280;21790;42.668;23.298;2023-02-28T18:16:17;95213.06;;;13.21;53.53
35676;BME280;21790;42.668;23.298;2023-02-28T18:22:35;95235.81;;;13.61;52.40
35676;BME280;21790;42.668;23.298;2023-02-28T18:45:51;95232.13;;;13.88;51.12
35676;BME280;21790;42.668;23.298;2023-02-28T18:57:36;95256.16;;;14.00;50.88
35676;BME280;21790;42.668;23.298;2023-02-28T19:00:04;95247.91;;;14.48;58.92
35676;BME280;21790;42.668;23.298;2023-02-28T19:02:30;95245.03;;;14.57;50.51
35676;BME280;21790;42.668;23.298;2023-02-28T19:08:31;95230.22;;;14.03;49.93
35676;BME280;21790;42.668;23.298;2023-02-28T19:14:31;95231.47;;;13.60;51.13
35676;BME280;21790;42.668;23.298;2023-02-28T19:20:32;95232.75;;;13.50;51.61
35676;BME280;21790;42.668;23.298;2023-02-28T19:23:00;95251.09;;;13.48;51.97
35676;BME280;21790;42.668;23.298;2023-02-28T19:29:19;95253.41;;;13.49;51.35
35676;BME280;21790;42.668;23.298;2023-02-28T19:32:16;95247.94;;;13.04;52.47
35676;BME280;21790;42.668;23.298;2023-02-28T19:41:27;95243.31;;;12.73;53.37
35676;BME280;21790;42.668;23.298;2023-02-28T19:47:16;95243.94;;;13.14;52.38
35676;BME280;21790;42.668;23.298;2023-02-28T19:50:02;95237.44;;;12.98;52.83